createdAt,value
2023-03-03T00:00:43.833Z,25.02
2023-03-03T00:03:11.882Z,25.70
2023-03-03T00:05:38.567Z,25.35
2023-03-03T00:08:05.359Z,25.10
2023-03-03T00:10:32.006Z,25.08
2023-03-03T00:12:58.600Z,25.08
2023-03-03T00:15:25.782Z,22.55
2023-03-03T00:17:53.052Z,23.77
2023-03-03T00:20:26.397Z,25.88
2023-03-03T00:22:52.984Z,26.77
2023-03-03T00:25:19.812Z,23.88
2023-03-03T00:27:46.384Z,22.50
2023-03-03T00:30:26.525Z,22.00
2023-03-03T00:32:54.888Z,22.10
2023-03-03T00:37:56.770Z,22.77
2023-03-03T00:40:26.203Z,22.10
2023-03-03T00:42:55.164Z,23.17
2023-03-03T00:45:32.052Z,23.35
2023-03-03T00:47:59.126Z,23.02
2023-03-03T00:50:30.642Z,23.55
2023-03-03T00:53:05.012Z,22.60
2023-03-03T00:55:32.532Z,22.33
2023-03-03T00:57:59.099Z,26.80
2023-03-03T01:00:25.806Z,24.48
2023-03-03T01:02:53.165Z,25.25
2023-03-03T01:05:20.210Z,24.73
2023-03-03T01:07:46.801Z,25.67
2023-03-03T01:10:13.830Z,26.42
2023-03-03T01:12:40.819Z,23.92
2023-03-03T01:15:09.112Z,23.73
2023-03-03T01:17:36.564Z,23.77
2023-03-03T01:20:04.297Z,22.83
2023-03-03T01:22:30.906Z,21.90
2023-03-03T01:24:59.251Z,20.13
2023-03-03T01:27:28.610Z,20.33
2023-03-03T01:29:56.675Z,18.67
2023-03-03T01:32:27.183Z,19.50
2023-03-03T01:34:54.557Z,19.17
2023-03-03T01:37:21.692Z,18.95
2023-03-03T01:39:50.218Z,18.55
2023-03-03T01:42:17.037Z,18.70
2023-03-03T01:44:44.006Z,19.30
2023-03-03T01:47:27.552Z,21.02
2023-03-03T01:50:00.514Z,19.15
2023-03-03T01:52:34.008Z,18.88
2023-03-03T01:55:04.143Z,17.10
2023-03-03T01:57:37.538Z,19.17
2023-03-03T02:00:05.865Z,17.33
2023-03-03T02:04:58.938Z,17.55
2023-03-03T02:07:28.258Z,17.60
2023-03-03T02:10:00.228Z,20.15
2023-03-03T02:12:32.747Z,16.08
2023-03-03T02:14:59.416Z,19.33
2023-03-03T02:17:26.213Z,17.50
2023-03-03T02:20:17.768Z,18.67
2023-03-03T02:22:51.493Z,16.77
2023-03-03T02:25:58.781Z,18.52
2023-03-03T02:30:59.178Z,17.83
2023-03-03T02:33:26.219Z,18.00
2023-03-03T02:35:53.394Z,17.25
2023-03-03T02:38:44.146Z,16.48
2023-03-03T02:41:45.141Z,18.65
2023-03-03T02:44:14.416Z,15.52
2023-03-03T02:46:43.264Z,17.75
2023-03-03T02:49:12.437Z,17.15
2023-03-03T02:51:39.581Z,18.00
2023-03-03T02:54:07.248Z,18.50
2023-03-03T02:56:34.272Z,17.30
2023-03-03T02:59:01.125Z,17.25
2023-03-03T03:01:28.142Z,17.85
2023-03-03T03:03:54.848Z,19.77
2023-03-03T03:06:21.432Z,19.25
2023-03-03T03:08:48.057Z,20.02
2023-03-03T03:11:14.665Z,18.33
2023-03-03T03:13:41.235Z,18.15
2023-03-03T03:16:08.009Z,18.17
2023-03-03T03:18:34.592Z,19.60
2023-03-03T03:21:09.717Z,17.50
2023-03-03T03:23:36.465Z,16.73
2023-03-03T03:26:03.060Z,18.40
2023-03-03T03:28:29.697Z,19.77
2023-03-03T03:30:56.828Z,18.35
2023-03-03T03:33:23.467Z,18.90
2023-03-03T03:35:50.581Z,19.48
2023-03-03T03:38:17.581Z,18.70
2023-03-03T03:40:44.196Z,18.02
2023-03-03T03:43:10.806Z,19.50
2023-03-03T03:45:37.395Z,18.10
2023-03-03T03:48:04.025Z,18.20
2023-03-03T03:50:30.825Z,19.27
2023-03-03T03:52:57.371Z,16.63
2023-03-03T03:55:23.926Z,18.60
2023-03-03T03:57:50.563Z,18.13
2023-03-03T04:00:17.749Z,17.77
2023-03-03T04:02:44.408Z,17.67
2023-03-03T04:05:11.093Z,18.52
2023-03-03T04:07:37.668Z,16.38
2023-03-03T04:10:05.147Z,17.30
2023-03-03T04:12:38.319Z,17.30
2023-03-03T04:15:06.755Z,18.83
2023-03-03T04:19:59.877Z,17.85
2023-03-03T04:22:26.628Z,18.38
2023-03-03T04:24:53.471Z,17.35
2023-03-03T04:27:20.037Z,18.65
2023-03-03T04:29:46.785Z,17.02
2023-03-03T04:32:13.758Z,19.65
2023-03-03T04:34:40.454Z,17.35
2023-03-03T04:37:06.987Z,16.67
2023-03-03T04:39:33.627Z,19.90
2023-03-03T04:42:00.211Z,16.13
2023-03-03T04:44:26.913Z,17.33
2023-03-03T04:46:53.545Z,17.83
2023-03-03T04:49:20.173Z,17.40
2023-03-03T04:51:46.748Z,18.02
2023-03-03T04:54:13.294Z,17.95
2023-03-03T04:56:40.094Z,19.48
2023-03-03T04:59:06.648Z,17.58
2023-03-03T05:01:33.277Z,18.35
2023-03-03T05:03:59.851Z,19.50
2023-03-03T05:06:26.450Z,17.90
2023-03-03T05:08:53.028Z,21.88
2023-03-03T05:11:19.609Z,19.60
2023-03-03T05:13:46.206Z,18.35
2023-03-03T05:16:12.964Z,19.65
2023-03-03T05:18:39.608Z,19.63
2023-03-03T05:21:06.562Z,17.00
2023-03-03T05:23:33.327Z,18.50
2023-03-03T05:25:59.874Z,21.27
2023-03-03T05:28:26.465Z,18.13
2023-03-03T05:30:53.011Z,17.17
2023-03-03T05:33:19.634Z,20.30
2023-03-03T05:35:46.283Z,18.60
2023-03-03T05:38:12.903Z,19.45
2023-03-03T05:40:40.377Z,18.35
2023-03-03T05:43:07.272Z,18.33
2023-03-03T05:45:35.355Z,20.02
2023-03-03T05:48:02.018Z,19.95
2023-03-03T05:50:28.647Z,18.02
2023-03-03T05:52:55.224Z,17.63
2023-03-03T05:55:21.798Z,17.67
2023-03-03T05:57:48.402Z,19.17
2023-03-03T06:00:16.700Z,19.10
2023-03-03T06:02:43.632Z,22.02
2023-03-03T06:05:10.567Z,19.60
2023-03-03T06:07:37.306Z,21.63
2023-03-03T06:10:04.930Z,21.85
2023-03-03T06:12:31.520Z,19.45
2023-03-03T06:14:58.121Z,20.83
2023-03-03T06:17:24.766Z,21.45
2023-03-03T06:19:51.314Z,19.33
2023-03-03T06:22:17.971Z,21.98
2023-03-03T06:24:44.623Z,18.25
2023-03-03T06:27:11.329Z,21.63
2023-03-03T06:29:37.928Z,21.20
2023-03-03T06:32:05.160Z,20.67
2023-03-03T06:34:31.813Z,19.15
2023-03-03T06:36:58.413Z,19.13
2023-03-03T06:39:24.982Z,19.58
2023-03-03T06:41:51.608Z,19.67
2023-03-03T06:44:18.293Z,19.15
2023-03-03T06:46:44.929Z,20.15
2023-03-03T06:49:11.514Z,18.50
2023-03-03T06:51:39.966Z,17.23
2023-03-03T06:54:21.530Z,16.05
2023-03-03T06:56:49.980Z,18.35
2023-03-03T06:59:21.001Z,17.80
2023-03-03T07:01:49.377Z,16.80
2023-03-03T07:06:43.878Z,14.43
2023-03-03T07:09:24.108Z,15.18
2023-03-03T07:11:52.384Z,18.00
2023-03-03T07:14:20.068Z,18.02
2023-03-03T07:16:46.993Z,17.75
2023-03-03T07:19:19.637Z,17.20
2023-03-03T07:21:46.230Z,17.15
2023-03-03T07:24:28.884Z,16.30
2023-03-03T07:27:01.071Z,14.98
2023-03-03T07:29:30.634Z,16.13
2023-03-03T07:31:58.906Z,16.90
2023-03-03T07:37:51.700Z,15.75
2023-03-03T07:40:35.822Z,17.25
2023-03-03T07:43:24.909Z,16.40
2023-03-03T07:45:51.651Z,16.17
2023-03-03T07:48:28.102Z,17.90
2023-03-03T07:50:54.680Z,17.65
2023-03-03T07:53:30.115Z,15.82
2023-03-03T07:55:56.720Z,16.48
2023-03-03T07:58:40.676Z,16.58
2023-03-03T08:01:22.659Z,16.40
2023-03-03T08:03:51.129Z,15.25
2023-03-03T08:06:47.105Z,16.20
2023-03-03T08:09:19.970Z,14.75
2023-03-03T08:12:09.180Z,13.60
2023-03-03T08:14:38.088Z,11.95
2023-03-03T08:17:35.158Z,13.75
2023-03-03T08:20:01.777Z,12.83
2023-03-03T08:22:30.344Z,12.38
2023-03-03T08:24:56.964Z,14.32
2023-03-03T08:27:23.560Z,14.73
2023-03-03T08:29:50.190Z,13.68
2023-03-03T08:32:17.022Z,13.50
2023-03-03T08:34:43.722Z,12.45
2023-03-03T08:37:10.743Z,13.68
2023-03-03T08:39:38.094Z,15.35
2023-03-03T08:42:05.201Z,15.35
2023-03-03T08:44:31.877Z,14.30
2023-03-03T08:46:58.630Z,13.52
2023-03-03T08:49:25.271Z,13.88
2023-03-03T08:51:52.755Z,14.52
2023-03-03T08:54:19.377Z,13.70
2023-03-03T08:56:45.945Z,12.90
2023-03-03T08:59:13.536Z,13.82
2023-03-03T09:01:40.203Z,15.73
2023-03-03T09:04:06.854Z,14.95
2023-03-03T09:06:33.465Z,12.35
2023-03-03T09:09:00.155Z,16.92
2023-03-03T09:11:28.083Z,12.65
2023-03-03T09:14:02.849Z,14.75
2023-03-03T09:16:32.907Z,11.98
2023-03-03T09:19:00.816Z,12.05
2023-03-03T09:21:32.931Z,13.30
2023-03-03T09:24:00.769Z,13.18
2023-03-03T09:26:31.701Z,12.40
2023-03-03T09:29:17.282Z,13.90
2023-03-03T09:31:54.920Z,12.68
2023-03-03T09:34:35.042Z,13.13
2023-03-03T09:37:02.345Z,12.68
2023-03-03T09:39:32.930Z,13.05
2023-03-03T09:42:34.035Z,11.23
2023-03-03T09:45:33.522Z,11.60
2023-03-03T09:48:06.030Z,12.73
2023-03-03T09:50:44.947Z,11.57
2023-03-03T09:53:11.427Z,12.15
2023-03-03T09:56:03.091Z,11.80
2023-03-03T09:58:51.331Z,12.15
2023-03-03T10:03:56.847Z,10.43
2023-03-03T10:06:49.825Z,11.57
2023-03-03T10:09:31.713Z,12.38
2023-03-03T10:12:28.685Z,10.65
2023-03-03T10:15:17.335Z,10.63
2023-03-03T10:17:59.253Z,15.40
2023-03-03T10:20:50.690Z,12.07
2023-03-03T10:23:33.538Z,11.98
2023-03-03T10:26:34.832Z,11.77
2023-03-03T10:29:30.703Z,12.65
2023-03-03T10:32:27.851Z,12.70
2023-03-03T10:35:36.728Z,11.98
2023-03-03T10:38:22.124Z,12.75
2023-03-03T10:41:07.946Z,12.30
2023-03-03T10:43:57.945Z,12.45
2023-03-03T10:46:39.971Z,12.90
2023-03-03T10:49:45.966Z,12.50
2023-03-03T10:52:42.096Z,14.73
2023-03-03T10:55:34.410Z,13.40
2023-03-03T10:58:07.621Z,13.27
2023-03-03T11:00:51.577Z,12.65
2023-03-03T11:03:55.776Z,13.00
2023-03-03T11:06:27.080Z,13.43
2023-03-03T11:08:59.795Z,12.50
2023-03-03T11:11:44.690Z,12.02
2023-03-03T11:14:47.461Z,13.98
2023-03-03T11:17:51.547Z,11.93
2023-03-03T11:20:20.428Z,12.27
2023-03-03T11:22:47.553Z,13.20
2023-03-03T11:25:21.340Z,12.27
2023-03-03T11:28:24.817Z,12.80
2023-03-03T11:31:12.715Z,12.90
2023-03-03T11:33:45.214Z,11.38
2023-03-03T11:36:21.518Z,11.45
2023-03-03T11:39:14.868Z,11.60
2023-03-03T11:41:43.940Z,12.40
2023-03-03T11:44:24.873Z,11.55
2023-03-03T11:47:19.057Z,12.18
2023-03-03T11:49:56.629Z,12.02
2023-03-03T11:52:40.846Z,13.20
2023-03-03T11:55:41.646Z,12.15
2023-03-03T11:58:12.244Z,12.27
2023-03-03T12:00:52.620Z,15.23
2023-03-03T12:03:25.265Z,12.60
2023-03-03T12:06:33.173Z,11.88
2023-03-03T12:09:23.893Z,11.40
2023-03-03T12:12:07.972Z,12.68
2023-03-03T12:14:46.558Z,13.25
2023-03-03T12:17:19.874Z,14.02
2023-03-03T12:20:23.797Z,13.25
2023-03-03T12:23:10.955Z,13.75
2023-03-03T12:25:58.720Z,13.60
2023-03-03T12:28:41.535Z,14.70
2023-03-03T12:31:20.395Z,14.10
2023-03-03T12:33:56.764Z,13.98
2023-03-03T12:36:29.230Z,14.18
2023-03-03T12:39:35.134Z,14.68
2023-03-03T12:42:43.517Z,14.15
2023-03-03T12:47:52.288Z,13.75
2023-03-03T12:50:34.978Z,14.68
2023-03-03T12:53:02.751Z,13.27
2023-03-03T12:56:06.048Z,15.35
2023-03-03T12:59:01.115Z,15.07
2023-03-03T13:01:46.277Z,16.52
2023-03-03T13:04:19.066Z,16.30
2023-03-03T13:06:50.701Z,15.32
2023-03-03T13:09:26.245Z,18.27
2023-03-03T13:11:56.422Z,15.82
2023-03-03T13:14:46.936Z,16.23
2023-03-03T13:17:58.178Z,17.05
2023-03-03T13:21:03.023Z,16.42
2023-03-03T13:23:39.328Z,17.20
2023-03-03T13:26:31.734Z,16.20
2023-03-03T13:29:17.184Z,15.55
2023-03-03T13:31:50.092Z,16.73
2023-03-03T13:34:43.100Z,14.35
2023-03-03T13:37:24.967Z,15.63
2023-03-03T13:40:30.189Z,16.58
2023-03-03T13:43:13.834Z,15.60
2023-03-03T13:45:51.244Z,14.75
2023-03-03T13:48:43.762Z,15.10
2023-03-03T13:51:32.778Z,15.73
2023-03-03T13:54:24.888Z,14.05
2023-03-03T13:57:03.469Z,15.15
2023-03-03T13:59:42.250Z,14.95
2023-03-03T14:02:42.500Z,14.77
2023-03-03T14:05:32.434Z,13.90
2023-03-03T14:08:02.445Z,13.73
2023-03-03T14:10:35.305Z,14.40
2023-03-03T14:13:10.790Z,12.63
2023-03-03T14:15:54.878Z,12.32
2023-03-03T14:18:41.333Z,12.23
2023-03-03T14:21:12.373Z,11.73
2023-03-03T14:23:52.014Z,11.55
2023-03-03T14:26:18.630Z,12.02
2023-03-03T14:28:51.085Z,12.20
2023-03-03T14:31:28.199Z,11.77
2023-03-03T14:34:14.725Z,10.68
2023-03-03T14:36:43.207Z,9.63
2023-03-03T14:42:00.674Z,8.98
2023-03-03T14:44:29.026Z,9.53
2023-03-03T14:47:10.993Z,8.38
2023-03-03T14:49:39.577Z,9.43
2023-03-03T14:54:40.034Z,7.90
2023-03-03T14:57:15.754Z,9.50
2023-03-03T14:59:55.913Z,9.15
2023-03-03T15:02:37.636Z,9.52
2023-03-03T15:05:17.880Z,8.52
2023-03-03T15:07:45.466Z,8.15
2023-03-03T15:10:13.568Z,8.90
2023-03-03T15:12:41.900Z,9.07
2023-03-03T15:15:18.289Z,9.05
2023-03-03T15:18:05.332Z,8.80
2023-03-03T15:20:45.542Z,8.88
2023-03-03T15:23:24.300Z,8.57
2023-03-03T15:25:58.760Z,9.32
2023-03-03T15:28:34.553Z,8.48
2023-03-03T15:31:19.429Z,9.45
2023-03-03T15:33:58.307Z,10.20
2023-03-03T15:36:55.217Z,8.38
2023-03-03T15:39:31.375Z,9.50
2023-03-03T15:42:08.209Z,9.90
2023-03-03T15:44:59.813Z,9.35
2023-03-03T15:47:36.826Z,10.00
2023-03-03T15:50:18.694Z,10.25
2023-03-03T15:53:20.685Z,10.52
2023-03-03T15:55:57.586Z,10.27
2023-03-03T15:58:42.345Z,9.60
2023-03-03T16:01:25.385Z,9.75
2023-03-03T16:03:59.529Z,10.10
2023-03-03T16:06:46.117Z,9.98
2023-03-03T16:09:43.816Z,10.00
2023-03-03T16:12:31.483Z,9.63
2023-03-03T16:15:15.891Z,8.88
2023-03-03T16:17:58.157Z,9.27
2023-03-03T16:20:58.837Z,8.27
2023-03-03T16:23:47.370Z,8.68
2023-03-03T16:26:21.434Z,9.95
2023-03-03T16:29:11.826Z,9.05
2023-03-03T16:31:46.202Z,8.82
2023-03-03T16:34:19.444Z,8.98
2023-03-03T16:36:58.425Z,8.55
2023-03-03T16:39:39.634Z,8.65
2023-03-03T16:42:21.460Z,8.68
2023-03-03T16:45:07.338Z,7.97
2023-03-03T16:47:52.727Z,7.93
2023-03-03T16:50:37.590Z,8.10
2023-03-03T16:53:14.577Z,8.65
2023-03-03T16:56:05.356Z,8.10
2023-03-03T16:59:16.698Z,8.98
2023-03-03T17:02:17.544Z,8.40
2023-03-03T17:05:03.193Z,8.10
2023-03-03T17:08:00.602Z,9.02
2023-03-03T17:10:34.040Z,9.85
2023-03-03T17:13:25.645Z,9.93
2023-03-03T17:16:23.234Z,9.90
2023-03-03T17:19:14.433Z,9.88
2023-03-03T17:22:14.822Z,10.55
2023-03-03T17:24:56.480Z,11.02
2023-03-03T17:27:31.087Z,11.50
2023-03-03T17:30:10.671Z,9.55
2023-03-03T17:32:56.809Z,10.13
2023-03-03T17:35:50.889Z,9.82
2023-03-03T17:38:39.224Z,9.32
2023-03-03T17:44:03.479Z,9.52
2023-03-03T17:46:37.738Z,10.38
2023-03-03T17:49:13.533Z,10.77
2023-03-03T17:52:09.086Z,11.50
2023-03-03T17:54:38.553Z,11.73
2023-03-03T17:57:17.156Z,10.88
2023-03-03T18:00:03.675Z,10.00
2023-03-03T18:02:30.674Z,10.85
2023-03-03T18:05:12.326Z,12.73
2023-03-03T18:07:48.171Z,12.32
2023-03-03T18:10:44.546Z,13.50
2023-03-03T18:13:37.169Z,12.32
2023-03-03T18:16:22.717Z,12.45
2023-03-03T18:19:26.373Z,11.35
2023-03-03T18:22:25.323Z,10.68
2023-03-03T18:24:51.823Z,9.80
2023-03-03T18:27:24.187Z,8.75
2023-03-03T18:30:20.287Z,7.68
2023-03-03T18:33:01.251Z,7.93
2023-03-03T18:35:34.182Z,6.47
2023-03-03T18:38:16.008Z,4.30
2023-03-03T18:40:51.001Z,3.25
2023-03-03T18:43:48.385Z,3.30
2023-03-03T18:46:20.913Z,2.85
2023-03-03T18:49:05.188Z,3.80
2023-03-03T18:51:34.920Z,3.15
2023-03-03T18:54:03.951Z,3.25
2023-03-03T18:56:47.651Z,3.38
2023-03-03T18:59:36.194Z,2.80
2023-03-03T19:02:17.978Z,3.50
2023-03-03T19:04:50.708Z,3.20
2023-03-03T19:07:29.042Z,3.55
2023-03-03T19:12:47.252Z,3.00
2023-03-03T19:15:33.866Z,3.15
2023-03-03T19:18:02.144Z,2.70
2023-03-03T19:20:48.135Z,3.25
2023-03-03T19:23:20.687Z,2.97
2023-03-03T19:26:25.059Z,2.67
2023-03-03T19:29:20.134Z,2.58
2023-03-03T19:31:50.373Z,2.50
2023-03-03T19:34:28.916Z,2.47
2023-03-03T19:37:12.805Z,2.35
2023-03-03T19:39:49.088Z,3.22
2023-03-03T19:42:24.676Z,3.47
2023-03-03T19:45:16.717Z,2.92
2023-03-03T19:48:14.401Z,3.45
2023-03-03T19:51:07.639Z,3.65
2023-03-03T19:53:35.660Z,2.95
2023-03-03T19:56:21.522Z,2.20
2023-03-03T19:59:06.809Z,2.72
2023-03-03T20:01:59.528Z,2.70
2023-03-03T20:04:52.397Z,2.92
2023-03-03T20:07:20.830Z,2.72
2023-03-03T20:10:01.503Z,2.70
2023-03-03T20:12:39.994Z,2.85
2023-03-03T20:15:27.235Z,3.00
2023-03-03T20:18:15.381Z,2.80
2023-03-03T20:20:55.452Z,2.78
2023-03-03T20:23:42.113Z,2.50
2023-03-03T20:26:27.240Z,2.10
2023-03-03T20:29:16.947Z,2.28
2023-03-03T20:32:00.201Z,2.60
2023-03-03T20:34:54.398Z,1.90
2023-03-03T20:37:31.566Z,2.42
2023-03-03T20:39:58.081Z,2.63
2023-03-03T20:42:42.741Z,2.40
2023-03-03T20:45:14.736Z,2.42
2023-03-03T20:48:13.893Z,2.15
2023-03-03T20:51:19.455Z,3.28
2023-03-03T20:54:10.850Z,2.45
2023-03-03T20:57:13.990Z,3.70
2023-03-03T21:00:06.953Z,2.22
2023-03-03T21:02:44.459Z,2.92
2023-03-03T21:05:15.899Z,2.30
2023-03-03T21:08:02.824Z,2.45
2023-03-03T21:10:32.060Z,2.45
2023-03-03T21:13:29.504Z,2.75
2023-03-03T21:16:01.110Z,2.95
2023-03-03T21:18:27.735Z,2.90
2023-03-03T21:20:54.313Z,2.88
2023-03-03T21:23:22.861Z,3.15
2023-03-03T21:26:07.653Z,2.33
2023-03-03T21:28:34.832Z,2.85
2023-03-03T21:31:09.108Z,2.97
2023-03-03T21:33:51.133Z,2.75
2023-03-03T21:36:44.837Z,3.00
2023-03-03T21:39:32.805Z,2.97
2023-03-03T21:42:09.777Z,2.35
2023-03-03T21:44:39.155Z,3.08
2023-03-03T21:47:07.484Z,3.15
2023-03-03T21:49:34.320Z,2.63
2023-03-03T21:52:01.271Z,3.00
2023-03-03T21:54:28.283Z,3.22
2023-03-03T21:56:54.919Z,2.58
2023-03-03T21:59:21.527Z,3.03
2023-03-03T22:01:48.092Z,3.08
2023-03-03T22:04:15.039Z,2.55
2023-03-03T22:06:41.723Z,2.67
2023-03-03T22:09:08.800Z,2.42
2023-03-03T22:11:35.500Z,2.85
2023-03-03T22:14:02.359Z,3.03
2023-03-03T22:16:29.018Z,3.15
2023-03-03T22:18:55.646Z,2.95
2023-03-03T22:21:22.374Z,3.03
2023-03-03T22:23:48.959Z,3.78
2023-03-03T22:26:15.662Z,3.03
2023-03-03T22:28:44.256Z,2.92
2023-03-03T22:31:11.217Z,2.60
2023-03-03T22:33:37.869Z,3.63
2023-03-03T22:36:04.778Z,2.70
2023-03-03T22:38:31.432Z,3.58
2023-03-03T22:40:58.096Z,3.42
2023-03-03T22:43:25.731Z,2.65
2023-03-03T22:45:52.453Z,2.90
2023-03-03T22:48:19.447Z,3.80
2023-03-03T22:50:47.462Z,2.90
2023-03-03T22:53:14.063Z,2.55
2023-03-03T22:55:40.657Z,3.47
2023-03-03T22:58:09.418Z,2.63
2023-03-03T23:00:39.759Z,2.60
2023-03-03T23:03:07.016Z,3.28
2023-03-03T23:05:34.128Z,3.33
2023-03-03T23:08:00.790Z,3.10
2023-03-03T23:10:27.402Z,2.70
2023-03-03T23:12:54.401Z,3.97
2023-03-03T23:15:21.108Z,3.45
2023-03-03T23:17:47.690Z,3.38
2023-03-03T23:20:18.774Z,3.15
2023-03-03T23:22:46.216Z,3.33
2023-03-03T23:25:13.875Z,2.88
2023-03-03T23:27:41.299Z,2.70
2023-03-03T23:30:08.741Z,2.60
2023-03-03T23:32:35.417Z,2.10
2023-03-03T23:35:02.208Z,3.45
2023-03-03T23:37:28.934Z,3.50
2023-03-03T23:39:55.501Z,2.90
2023-03-03T23:42:22.039Z,2.80
2023-03-03T23:44:48.610Z,3.60
2023-03-03T23:47:15.295Z,3.00
2023-03-03T23:49:41.957Z,3.33
2023-03-03T23:52:08.573Z,3.17
2023-03-03T23:54:35.182Z,2.42
2023-03-03T23:57:01.818Z,2.85
2023-03-03T23:59:28.614Z,2.80
